Time;durP1;ratioP1;P1;durP2;ratioP2;P2;SDS_P1;SDS_P2;PMS_P1;PMS_P2;Temp;Humidity;BMP_temperature;BMP_pressure;BME280_temperature;BME280_humidity;BME280_pressure;Samples;Min_cycle;Max_cycle;Signal;HPM_P1;HPM_P2
2023/12/26 00:00:12;;;;;;;2.57;1.60;;;11.70;98.00;;;13.22;71.37;100064.28;3081109;46;20490;-66
2023/12/26 00:02:40;;;;;;;4.10;1.63;;;11.70;98.10;;;13.20;71.45;100062.88;3080970;46;20459;-65
2023/12/26 00:05:09;;;;;;;3.80;1.70;;;11.70;98.10;;;13.21;71.57;100054.75;3081016;46;20428;-66
2023/12/26 00:07:37;;;;;;;3.93;1.77;;;11.70;98.20;;;13.18;71.65;100049.88;3080696;46;20495;-65
2023/12/26 00:10:06;;;;;;;4.20;2.27;;;11.70;98.20;;;13.22;71.35;100050.25;3079786;46;20569;-66
2023/12/26 00:12:35;;;;;;;2.40;1.47;;;11.70;98.20;;;13.23;71.49;100044.78;3081009;46;21105;-65
2023/12/26 00:15:04;;;;;;;3.10;1.67;;;11.70;98.30;;;13.23;71.51;100036.84;3080865;46;20428;-66
2023/12/26 00:17:32;;;;;;;2.27;2.03;;;11.70;98.30;;;13.24;71.28;100038.47;3080603;46;20469;-66
2023/12/26 00:20:01;;;;;;;3.70;2.00;;;11.70;98.30;;;13.25;71.45;100034.81;3081101;46;20458;-66
2023/12/26 00:22:29;;;;;;;3.53;2.10;;;11.70;98.30;;;13.26;71.50;100031.16;3080740;46;20429;-66
2023/12/26 00:24:57;;;;;;;4.30;1.80;;;11.70;98.40;;;13.27;71.12;100031.94;3083198;46;20576;-66
2023/12/26 00:27:26;;;;;;;2.53;1.57;;;11.70;98.40;;;13.27;71.26;100024.84;3083490;46;20443;-66
2023/12/26 00:29:54;;;;;;;3.50;1.60;;;11.70;98.40;;;13.27;71.35;100022.19;3083279;46;21094;-66
2023/12/26 00:32:23;;;;;;;3.17;1.83;;;11.70;98.40;;;13.26;71.36;100017.94;3083287;46;20431;-66
2023/12/26 00:34:51;;;;;;;5.00;1.50;;;11.70;98.40;;;13.25;71.25;100016.31;3083234;46;20437;-65
2023/12/26 00:37:21;;;;;;;4.10;1.73;;;11.70;98.40;;;13.26;71.62;100020.59;3083234;46;20536;-64
2023/12/26 00:39:49;;;;;;;2.57;1.60;;;11.70;98.40;;;13.25;71.58;100034.00;3082956;46;20454;-66
2023/12/26 00:42:19;;;;;;;2.13;1.10;;;11.70;98.30;;;13.24;71.51;100022.59;3082943;46;20455;-66
2023/12/26 00:44:47;;;;;;;1.70;1.33;;;11.70;98.30;;;13.26;71.72;100020.59;3083235;46;20557;-66
2023/12/26 00:47:16;;;;;;;3.83;1.60;;;11.70;98.30;;;13.26;71.39;100015.31;3082876;46;20443;-66
2023/12/26 00:49:44;;;;;;;2.37;1.47;;;11.70;98.30;;;13.27;71.39;100011.63;3082839;46;21086;-66
2023/12/26 00:52:13;;;;;;;4.13;2.03;;;11.70;98.30;;;13.28;71.47;100015.91;3083175;46;21087;-66
2023/12/26 00:54:41;;;;;;;2.70;1.37;;;11.70;98.30;;;13.30;71.39;100013.84;3082946;46;20427;-66
2023/12/26 00:57:09;;;;;;;1.77;1.50;;;11.70;98.60;;;13.30;71.62;100013.03;3082705;46;20452;-64
2023/12/26 00:59:38;;;;;;;3.33;1.60;;;11.70;98.30;;;13.30;71.36;100015.69;3083069;46;20428;-65
2023/12/26 01:02:06;;;;;;;3.53;1.77;;;11.70;98.30;;;13.31;71.53;100009.38;3083231;46;20451;-66
2023/12/26 01:04:35;;;;;;;2.97;1.70;;;11.70;98.30;;;13.31;71.56;100012.81;3082932;46;20500;-66
2023/12/26 01:07:06;;;;;;;2.10;1.73;;;11.70;98.30;;;13.31;71.62;100010.16;3082981;46;20949;-66
2023/12/26 01:09:34;;;;;;;1.97;1.30;;;11.70;98.30;;;13.30;71.25;100016.50;3082860;46;20481;-65
2023/12/26 01:12:03;;;;;;;1.23;1.13;;;11.70;98.30;;;13.29;71.45;100020.13;3082378;46;20441;-64
2023/12/26 01:14:31;;;;;;;1.57;1.10;;;11.70;98.30;;;13.26;71.58;100020.59;3082976;46;20451;-65
2023/12/26 01:17:00;;;;;;;1.73;1.20;;;11.70;98.30;;;13.25;71.48;100013.66;3082424;46;20518;-66
2023/12/26 01:19:28;;;;;;;2.13;1.70;;;11.70;98.30;;;13.24;71.53;100011.25;3082950;46;20545;-67
2023/12/26 01:21:56;;;;;;;4.43;1.57;;;11.70;98.30;;;13.24;71.70;100014.66;3082775;46;20427;-66
2023/12/26 01:24:25;;;;;;;3.10;1.77;;;11.70;98.30;;;13.23;71.64;100015.72;3082650;46;20899;-65
2023/12/26 01:26:53;;;;;;;3.17;1.80;;;11.70;98.20;;;13.23;71.64;99999.03;3082345;46;20564;-64
2023/12/26 01:29:22;;;;;;;4.90;2.73;;;11.70;98.20;;;13.24;71.24;100011.25;3082282;46;20953;-64
2023/12/26 01:31:50;;;;;;;7.30;3.50;;;11.70;98.20;;;13.23;71.44;100005.13;3082650;46;20494;-66
2023/12/26 01:34:19;;;;;;;6.43;3.10;;;11.70;98.20;;;13.24;71.71;99998.81;3082232;46;21086;-66
2023/12/26 01:36:47;;;;;;;2.87;2.03;;;11.70;98.30;;;13.24;71.42;99988.25;3082144;46;20427;-66
2023/12/26 01:39:16;;;;;;;5.17;2.33;;;11.70;98.30;;;13.24;71.28;99988.25;3082619;46;20553;-64
2023/12/26 01:41:45;;;;;;;3.43;2.13;;;11.70;98.30;;;13.25;71.35;99981.13;3082372;46;20634;-66
2023/12/26 01:44:13;;;;;;;1.57;1.20;;;11.70;98.30;;;13.26;71.11;99991.50;3082440;46;20427;-66
2023/12/26 01:46:41;;;;;;;2.10;1.40;;;11.70;98.20;;;13.27;71.41;99990.47;3082148;46;20513;-65
2023/12/26 01:49:11;;;;;;;2.00;1.40;;;11.70;98.20;;;13.27;71.06;99993.13;3082401;46;20427;-66
2023/12/26 01:51:42;;;;;;;1.97;1.20;;;11.70;98.20;;;13.27;70.99;99982.53;3081681;46;20518;-66
2023/12/26 01:54:11;;;;;;;2.37;1.00;;;11.70;98.20;;;13.29;71.20;99983.16;3081954;46;20538;-65
2023/12/26 01:56:40;;;;;;;2.13;1.50;;;11.70;98.20;;;13.30;71.15;99990.06;3081667;46;20492;-66
2023/12/26 01:59:09;;;;;;;3.23;1.77;;;11.70;98.20;;;13.29;71.03;99972.56;3081346;46;20468;-66
2023/12/26 02:01:38;;;;;;;2.07;1.37;;;11.70;98.10;;;13.31;71.27;99981.09;3082228;46;20561;-66
2023/12/26 02:04:06;;;;;;;1.40;1.00;;;11.70;98.10;;;13.30;70.94;99983.97;3082312;46;20985;-65
2023/12/26 02:06:37;;;;;;;4.10;1.83;;;11.70;98.10;;;13.30;70.55;99974.22;3082092;46;20501;-65
2023/12/26 02:09:10;;;;;;;3.70;1.63;;;11.70;98.00;;;13.29;70.92;99977.84;3081476;46;20459;-65
2023/12/26 02:11:39;;;;;;;2.80;1.37;;;11.60;98.00;;;13.26;70.92;99973.00;3082116;46;20427;-67
2023/12/26 02:14:09;;;;;;;4.20;1.10;;;11.70;98.00;;;13.25;70.86;99981.13;3082087;46;20427;-66
2023/12/26 02:16:42;;;;;;;1.20;1.10;;;11.70;98.00;;;13.22;71.01;99982.38;3081044;46;20542;-66
2023/12/26 02:19:10;;;;;;;1.47;1.10;;;11.60;97.90;;;13.21;70.97;99980.75;3081414;46;20992;-66
2023/12/26 02:21:39;;;;;;;1.67;0.90;;;11.60;97.90;;;13.20;70.94;99986.22;3082240;46;20436;-66
2023/12/26 02:24:07;;;;;;;3.23;1.40;;;11.60;97.90;;;13.20;70.59;99988.88;3081706;46;20452;-66
2023/12/26 02:26:41;;;;;;;1.60;0.83;;;11.60;97.90;;;13.18;70.98;99993.56;3081879;46;20521;-66
2023/12/26 02:29:11;;;;;;;2.17;1.13;;;11.60;98.00;;;13.18;70.69;99980.34;3082959;46;20453;-66
2023/12/26 02:31:40;;;;;;;2.03;1.10;;;11.60;98.00;;;13.17;70.65;99978.75;3081826;46;21085;-64
2023/12/26 02:34:09;;;;;;;3.87;1.77;;;11.60;98.00;;;13.16;70.91;99993.78;3081752;46;20490;-66
2023/12/26 02:36:38;;;;;;;1.93;1.07;;;11.60;98.00;;;13.16;71.18;99992.97;3081772;46;20476;-66
2023/12/26 02:39:10;;;;;;;3.17;1.30;;;11.60;98.00;;;13.14;70.91;99990.53;3081869;46;21068;-68
2023/12/26 02:41:39;;;;;;;2.77;1.30;;;11.60;98.10;;;13.15;71.13;100001.91;3081719;46;20427;-65
2023/12/26 02:44:07;;;;;;;4.20;1.20;;;11.60;98.10;;;13.15;71.31;100002.72;3081279;46;20587;-66
2023/12/26 02:46:36;;;;;;;2.63;1.33;;;11.60;98.20;;;13.17;71.14;100011.25;3081542;46;20420;-66
2023/12/26 02:49:04;;;;;;;1.60;1.03;;;11.60;98.20;;;13.18;71.24;100002.31;3081818;46;21112;-66
2023/12/26 02:51:35;;;;;;;1.37;1.20;;;11.60;98.20;;;13.20;71.45;100010.03;3082037;46;20596;-66
2023/12/26 02:54:03;;;;;;;2.90;1.20;;;11.60;98.30;;;13.21;71.17;100009.00;3082379;46;20428;-64
2023/12/26 02:56:32;;;;;;;2.60;1.00;;;11.60;98.30;;;13.21;71.24;100020.41;3081660;46;21021;-66
2023/12/26 02:59:00;;;;;;;1.83;1.10;;;11.60;98.30;;;13.22;71.57;100018.53;3081867;46;20581;-66
2023/12/26 03:01:28;;;;;;;1.97;1.20;;;11.60;98.40;;;13.21;71.34;100023.03;3082350;46;21009;-66
2023/12/26 03:03:57;;;;;;;2.67;0.87;;;11.60;98.40;;;13.20;71.47;100029.34;3082127;46;20436;-65
2023/12/26 03:06:25;;;;;;;3.07;1.20;;;11.70;98.40;;;13.22;71.45;100027.28;3081704;46;20439;-65
2023/12/26 03:08:55;;;;;;;1.83;1.13;;;11.70;98.40;;;13.23;71.39;100006.97;3081965;46;20435;-66
2023/12/26 03:11:23;;;;;;;2.60;1.10;;;11.70;98.50;;;13.20;71.74;100013.47;3081854;46;20516;-66
2023/12/26 03:13:52;;;;;;;1.53;0.93;;;11.70;98.50;;;13.20;71.98;100021.41;3081843;46;20497;-66
2023/12/26 03:16:21;;;;;;;0.90;0.90;;;11.70;98.50;;;13.19;71.90;100030.34;3081690;46;21071;-67
2023/12/26 03:18:49;;;;;;;1.03;0.93;;;11.70;98.50;;;13.17;72.10;100027.09;3081457;46;20616;-66
2023/12/26 03:21:18;;;;;;;2.40;1.20;;;11.70;98.50;;;13.17;71.90;100026.31;3080981;46;20432;-65
2023/12/26 03:23:47;;;;;;;1.00;0.90;;;11.70;98.60;;;13.18;72.33;100047.22;3082040;46;20925;-66
2023/12/26 03:26:15;;;;;;;0.87;0.80;;;11.70;98.70;;;13.19;71.91;100030.34;3081853;46;20993;-65
2023/12/26 03:28:44;;;;;;;0.73;0.60;;;11.70;98.70;;;13.22;71.98;100035.22;3081003;46;20469;-66
2023/12/26 03:31:12;;;;;;;1.70;1.00;;;11.70;98.70;;;13.26;72.32;100035.63;3081035;46;20427;-66
2023/12/26 03:33:40;;;;;;;1.00;0.90;;;11.70;98.70;;;13.28;71.92;100049.44;3081210;46;20505;-66
2023/12/26 03:36:09;;;;;;;2.67;0.90;;;11.70;98.70;;;13.30;71.83;100052.69;3081618;46;20549;-65
2023/12/26 03:38:38;;;;;;;1.97;0.83;;;11.70;98.60;;;13.32;71.75;100038.22;3081035;46;20581;-65
2023/12/26 03:41:06;;;;;;;1.47;0.83;;;11.70;98.60;;;13.32;71.76;100040.88;3081129;46;21033;-63
2023/12/26 03:43:35;;;;;;;0.60;0.60;;;11.70;98.50;;;13.35;72.00;100045.75;3081380;46;20549;-65
2023/12/26 03:46:03;;;;;;;3.63;1.20;;;11.70;98.40;;;13.37;71.71;100042.88;3081372;46;20485;-66
2023/12/26 03:48:31;;;;;;;1.07;0.87;;;11.70;98.40;;;13.39;71.60;100046.94;3080470;46;21085;-66
2023/12/26 03:51:00;;;;;;;2.27;0.90;;;11.70;98.20;;;13.41;71.66;100058.13;3081078;46;20427;-65
2023/12/26 03:53:28;;;;;;;2.90;1.27;;;11.80;98.40;;;13.44;71.42;100065.63;3081453;46;20440;-65
2023/12/26 03:55:57;;;;;;;5.27;1.10;;;11.80;98.30;;;13.47;71.17;100065.22;3080838;46;20481;-66
2023/12/26 03:58:25;;;;;;;6.60;1.30;;;11.80;98.20;;;13.49;70.70;100071.13;3080129;46;20581;-66
2023/12/26 04:00:54;;;;;;;2.67;1.13;;;11.80;98.20;;;13.49;71.08;100079.03;3080805;46;20431;-66
2023/12/26 04:03:23;;;;;;;2.50;1.10;;;11.80;98.10;;;13.48;70.63;100074.75;3081390;46;20453;-66
2023/12/26 04:05:51;;;;;;;2.40;0.80;;;11.80;98.10;;;13.48;70.97;100077.41;3081334;46;20449;-66
2023/12/26 04:08:20;;;;;;;1.37;0.90;;;11.80;98.00;;;13.49;70.75;100094.91;3080677;46;20446;-62
2023/12/26 04:10:48;;;;;;;3.17;1.27;;;11.80;97.90;;;13.49;70.67;100086.97;3080982;46;20545;-66
2023/12/26 04:13:16;;;;;;;2.50;1.17;;;11.80;97.90;;;13.48;70.41;100082.69;3080572;46;20475;-66
2023/12/26 04:15:45;;;;;;;2.23;1.10;;;11.80;97.70;;;13.48;70.20;100090.63;3081199;46;20487;-64
2023/12/26 04:18:13;;;;;;;4.37;1.10;;;11.80;97.70;;;13.47;70.39;100086.38;3080469;46;20572;-66
2023/12/26 04:20:42;;;;;;;2.30;1.00;;;11.80;97.60;;;13.46;70.04;100094.50;3080852;46;20461;-65
2023/12/26 04:23:10;;;;;;;1.70;1.20;;;11.90;97.60;;;13.45;70.09;100104.25;3080742;46;21041;-62
2023/12/26 04:25:39;;;;;;;4.07;1.40;;;11.80;97.40;;;13.45;70.04;100095.53;3080787;46;20460;-65
2023/12/26 04:28:07;;;;;;;5.60;1.50;;;11.80;97.30;;;13.45;69.69;100104.25;3080413;46;21071;-66
2023/12/26 04:30:36;;;;;;;4.10;1.30;;;11.80;97.20;;;13.46;69.62;100116.47;3080806;46;20485;-64
2023/12/26 04:33:05;;;;;;;5.67;1.77;;;11.80;97.10;;;13.45;69.25;100098.19;3080744;46;20569;-63
2023/12/26 04:35:34;;;;;;;4.67;1.50;;;11.80;97.10;;;13.43;69.12;100116.88;3080948;46;20461;-66
2023/12/26 04:38:03;;;;;;;4.80;1.50;;;11.80;97.00;;;13.42;69.23;100125.84;3080109;46;20651;-65
2023/12/26 04:40:31;;;;;;;8.47;1.83;;;11.80;97.00;;;13.43;68.84;100132.72;3080348;46;20430;-65
2023/12/26 04:43:05;;;;;;;5.23;1.57;;;11.80;96.80;;;13.44;68.78;100134.38;3080609;46;20505;-67
2023/12/26 04:45:36;;;;;;;5.83;1.90;;;11.80;96.80;;;13.47;68.55;100136.59;3080552;46;20639;-65
2023/12/26 04:48:07;;;;;;;3.80;1.83;;;11.80;96.80;;;13.45;68.56;100154.47;3080328;46;20440;-66
2023/12/26 04:50:36;;;;;;;7.70;2.10;;;11.80;96.70;;;13.42;68.63;100141.69;3080297;46;20911;-66
2023/12/26 04:53:04;;;;;;;3.27;1.57;;;11.80;96.60;;;13.43;68.20;100159.16;3080911;46;20425;-66
2023/12/26 04:55:33;;;;;;;9.23;1.63;;;11.80;96.50;;;13.42;68.36;100167.31;3080173;46;20632;-66
2023/12/26 04:58:01;;;;;;;5.27;1.97;;;11.80;96.50;;;13.42;68.18;100160.22;3080243;46;20444;-71
2023/12/26 05:00:30;;;;;;;5.43;1.80;;;11.80;96.40;;;13.42;68.22;100168.13;3080504;46;20556;-65
2023/12/26 05:02:58;;;;;;;5.07;2.03;;;11.80;96.30;;;13.42;67.22;100168.13;3080504;46;20579;-64
2023/12/26 05:05:27;;;;;;;7.70;1.90;;;11.80;95.90;;;13.41;66.94;100170.97;3080618;46;21012;-66
2023/12/26 05:07:55;;;;;;;3.80;1.70;;;11.80;95.70;;;13.40;67.03;100174.66;3079919;46;21066;-67
2023/12/26 05:10:23;;;;;;;8.10;2.20;;;11.80;95.50;;;13.36;66.65;100174.22;3081365;46;20428;-66
2023/12/26 05:12:52;;;;;;;9.30;2.37;;;11.80;95.70;;;13.32;66.54;100178.31;3083238;46;20456;-66
2023/12/26 05:15:21;;;;;;;8.17;2.07;;;11.70;94.90;;;13.28;66.45;100171.00;3083039;46;20432;-65
2023/12/26 05:17:49;;;;;;;8.67;3.03;;;11.70;95.10;;;13.26;66.21;100180.97;3082438;46;20476;-65
2023/12/26 05:20:18;;;;;;;7.07;2.07;;;11.70;95.00;;;13.25;65.78;100180.16;3082806;46;20632;-66
2023/12/26 05:22:57;;;;;;;9.00;1.80;;;11.70;94.70;;;13.22;65.57;100191.13;3082786;46;20460;-66
2023/12/26 05:25:26;;;;;;;7.33;2.13;;;11.70;94.50;;;13.19;65.18;100178.31;3082691;46;20431;-66
2023/12/26 05:27:54;;;;;;;9.17;2.33;;;11.70;94.50;;;13.14;65.33;100196.66;3082195;46;20476;-66
2023/12/26 05:30:23;;;;;;;8.23;2.27;;;11.60;94.00;;;13.09;65.10;100201.72;3082750;46;20432;-66
2023/12/26 05:32:52;;;;;;;10.27;2.20;;;11.60;94.10;;;13.04;64.92;100209.41;3082947;46;20894;-66
2023/12/26 05:35:20;;;;;;;7.60;1.50;;;11.60;93.90;;;13.01;64.77;100201.88;3082661;46;20459;-66
2023/12/26 05:37:49;;;;;;;5.60;2.20;;;11.50;93.80;;;13.00;64.12;100208.19;3082082;46;21096;-65
2023/12/26 05:40:18;;;;;;;7.00;1.90;;;11.50;93.40;;;12.97;64.02;100219.16;3082890;46;20508;-66
2023/12/26 05:42:49;;;;;;;9.23;2.10;;;11.40;93.50;;;12.94;63.95;100222.22;3082115;46;20549;-64
2023/12/26 05:45:22;;;;;;;7.43;2.33;;;11.40;93.30;;;12.90;64.04;100221.00;3082589;46;20488;-65
2023/12/26 05:47:51;;;;;;;7.03;2.00;;;11.40;93.40;;;12.84;63.89;100227.06;3081947;46;20527;-65
2023/12/26 05:50:19;;;;;;;4.60;2.10;;;11.40;93.40;;;12.79;63.62;100229.50;3082120;46;20518;-64
2023/12/26 05:52:48;;;;;;;9.07;1.80;;;11.30;93.20;;;12.75;63.56;100238.84;3082612;46;20452;-65
2023/12/26 05:55:16;;;;;;;6.10;2.10;;;11.30;93.20;;;12.72;63.39;100239.22;3082324;46;20443;-66
2023/12/26 05:57:44;;;;;;;4.60;1.60;;;11.30;93.10;;;12.72;63.66;100250.63;3081951;46;21085;-65
2023/12/26 06:00:14;;;;;;;5.47;1.77;;;11.20;93.10;;;12.73;63.21;100257.53;3082632;46;20549;-66
2023/12/26 06:02:42;;;;;;;6.20;1.73;;;11.20;93.00;;;12.76;63.16;100258.97;3082378;46;20458;-66
2023/12/26 06:05:11;;;;;;;6.50;2.07;;;11.20;93.10;;;12.80;63.10;100268.94;3081909;46;21017;-66
2023/12/26 06:07:39;;;;;;;9.77;2.07;;;11.20;93.00;;;12.84;62.82;100275.44;3081881;46;20440;-65
2023/12/26 06:10:08;;;;;;;7.53;2.40;;;11.20;93.00;;;12.87;62.64;100295.34;3082061;46;20515;-66
2023/12/26 06:12:36;;;;;;;6.63;2.20;;;11.20;93.00;;;12.89;62.52;100303.88;3082148;46;20427;-66
2023/12/26 06:15:05;;;;;;;6.63;2.10;;;11.20;93.00;;;12.90;62.54;100310.81;3082066;46;20604;-66
2023/12/26 06:17:36;;;;;;;4.10;1.97;;;11.20;92.90;;;12.91;62.06;100317.69;3081882;46;20464;-64
2023/12/26 06:20:06;;;;;;;6.30;2.17;;;11.30;92.70;;;12.91;62.02;100313.22;3082169;46;21089;-66
2023/12/26 06:22:35;;;;;;;7.70;2.23;;;11.30;92.50;;;12.89;61.36;100315.25;3081640;46;20449;-66
2023/12/26 06:25:04;;;;;;;8.17;2.10;;;11.30;92.20;;;12.87;61.59;100317.28;3082503;46;21013;-66
2023/12/26 06:27:32;;;;;;;8.63;2.30;;;11.20;92.00;;;12.85;61.05;100323.78;3081686;46;20493;-66
2023/12/26 06:30:00;;;;;;;9.23;2.80;;;11.20;91.50;;;12.85;60.34;100334.34;3082088;46;21010;-64
2023/12/26 06:32:29;;;;;;;7.43;2.63;;;11.20;91.40;;;12.82;60.55;100334.75;3081640;46;20517;-66
2023/12/26 06:34:58;;;;;;;8.13;2.40;;;11.20;91.40;;;12.82;60.06;100334.75;3081909;46;21062;-65
2023/12/26 06:37:28;;;;;;;7.87;2.30;;;11.20;91.20;;;12.80;60.35;100331.50;3081563;46;20440;-66
2023/12/26 06:39:57;;;;;;;12.00;2.77;;;11.20;91.40;;;12.79;60.40;100341.22;3081784;46;20441;-66
2023/12/26 06:42:25;;;;;;;16.07;2.90;;;11.20;91.30;;;12.79;60.26;100343.88;3081652;46;20466;-66
2023/12/26 06:44:54;;;;;;;9.00;2.70;;;11.10;91.10;;;12.79;59.76;100353.63;3081828;46;21072;-62
2023/12/26 06:47:22;;;;;;;9.97;2.27;;;11.10;91.20;;;12.77;59.88;100342.44;3081425;46;20440;-66
2023/12/26 06:49:53;;;;;;;10.13;2.10;;;11.10;91.00;;;12.76;59.87;100372.53;3082196;46;20436;-66
2023/12/26 06:52:21;;;;;;;14.83;3.43;;;11.10;91.00;;;12.74;59.73;100358.72;3082166;46;20484;-65
2023/12/26 06:54:49;;;;;;;9.07;2.73;;;11.10;90.90;;;12.73;59.52;100367.63;3081705;46;20475;-64
2023/12/26 06:57:18;;;;;;;11.63;2.90;;;11.10;91.00;;;12.72;59.56;100372.09;3081404;46;21119;-66
2023/12/26 06:59:48;;;;;;;9.80;2.90;;;11.10;90.90;;;12.72;59.62;100377.38;3080830;46;20485;-62
2023/12/26 07:02:17;;;;;;;10.40;2.57;;;11.10;90.80;;;12.71;59.56;100382.84;3081865;46;20447;-65
2023/12/26 07:04:45;;;;;;;8.73;2.40;;;11.10;90.90;;;12.65;59.37;100381.00;3081966;46;20558;-64
2023/12/26 07:07:13;;;;;;;9.73;2.40;;;11.10;90.90;;;12.65;59.54;100381.81;3081253;46;20583;-65
2023/12/26 07:09:42;;;;;;;11.23;2.40;;;11.10;90.90;;;12.65;59.48;100383.63;3081737;46;20478;-66
2023/12/26 07:12:10;;;;;;;8.77;2.77;;;11.10;90.90;;;12.64;59.28;100385.47;3081367;46;21084;-64
2023/12/26 07:14:38;;;;;;;11.07;2.27;;;11.00;90.90;;;12.65;59.51;100391.53;3081595;46;20428;-64
2023/12/26 07:17:07;;;;;;;8.77;2.67;;;11.00;90.90;;;12.63;59.42;100406.78;3081084;46;20465;-64
2023/12/26 07:19:35;;;;;;;7.83;2.63;;;11.00;90.90;;;12.60;59.57;100400.06;3081610;46;20566;-66
2023/12/26 07:22:04;;;;;;;13.13;3.07;;;11.00;90.90;;;12.59;59.39;100402.91;3082005;46;20520;-66
2023/12/26 07:24:32;;;;;;;11.70;2.80;;;11.00;91.00;;;12.60;59.64;100415.13;3081528;46;20513;-66
2023/12/26 07:27:01;;;;;;;11.07;2.73;;;11.00;91.10;;;12.61;59.40;100409.63;3081079;46;20467;-66
2023/12/26 07:29:29;;;;;;;10.43;2.30;;;11.00;91.10;;;12.61;59.51;100422.00;3081743;46;20503;-66
2023/12/26 07:31:57;;;;;;;10.67;2.37;;;11.00;90.80;;;12.61;59.15;100416.72;3081196;46;20427;-66
2023/12/26 07:34:27;;;;;;;6.70;2.10;;;10.90;90.70;;;12.62;59.15;100423.66;3080737;46;20632;-65
2023/12/26 07:36:55;;;;;;;4.63;2.37;;;11.00;90.70;;;12.63;58.91;100425.25;3081466;46;20538;-65
2023/12/26 07:39:24;;;;;;;7.67;2.03;;;11.00;90.70;;;12.64;59.16;100430.38;3081635;46;20474;-65
2023/12/26 07:41:54;;;;;;;7.93;2.57;;;11.00;90.80;;;12.64;58.95;100433.00;3081254;46;20427;-65
2023/12/26 07:44:23;;;;;;;8.43;1.97;;;11.00;90.70;;;12.63;59.01;100444.56;3081429;46;20431;-64
2023/12/26 07:46:51;;;;;;;6.97;2.23;;;11.00;90.70;;;12.63;58.89;100444.56;3080927;46;20477;-66
2023/12/26 07:49:19;;;;;;;5.73;2.03;;;11.00;90.70;;;12.63;58.90;100446.38;3080923;46;20456;-66
2023/12/26 07:51:48;;;;;;;7.23;2.23;;;11.00;90.70;;;12.63;58.93;100454.31;3081058;46;20452;-66
2023/12/26 07:54:16;;;;;;;9.23;2.03;;;11.00;90.70;;;12.62;59.21;100460.63;3080706;46;20959;-64
2023/12/26 07:56:45;;;;;;;11.13;2.50;;;11.00;90.80;;;12.62;59.12;100481.72;3080755;46;20427;-65
2023/12/26 07:59:14;;;;;;;9.73;2.40;;;11.00;90.80;;;12.60;59.26;100473.19;3081314;46;20427;-62
2023/12/26 08:01:42;;;;;;;11.00;2.70;;;11.00;90.90;;;12.57;59.31;100478.84;3081193;46;20550;-67
2023/12/26 08:04:10;;;;;;;9.93;2.60;;;11.00;91.00;;;12.55;59.63;100491.44;3080910;46;20456;-66
2023/12/26 08:06:39;;;;;;;5.60;1.90;;;11.00;91.10;;;12.54;59.73;100495.06;3080593;46;20428;-66
2023/12/26 08:09:08;;;;;;;5.50;1.93;;;11.00;91.20;;;12.52;59.75;100511.13;3080005;46;20435;-64
2023/12/26 08:11:36;;;;;;;9.07;2.37;;;10.90;91.20;;;12.50;59.83;100512.31;3080832;46;20451;-65
2023/12/26 08:14:05;;;;;;;11.43;2.40;;;10.90;91.30;;;12.47;59.94;100508.22;3081238;46;20580;-64
2023/12/26 08:16:33;;;;;;;4.57;1.77;;;10.90;91.40;;;12.47;60.07;100517.97;3080538;46;20509;-65
2023/12/26 08:19:02;;;;;;;7.10;2.30;;;10.90;91.50;;;12.47;60.47;100523.25;3080750;46;20495;-66
2023/12/26 08:21:31;;;;;;;8.17;1.80;;;10.90;91.60;;;12.48;60.42;100530.16;3080858;46;20430;-65
2023/12/26 08:23:59;;;;;;;6.77;1.87;;;10.90;91.70;;;12.50;60.35;100528.16;3081012;46;20557;-66
2023/12/26 08:26:31;;;;;;;8.00;2.50;;;10.90;91.70;;;12.51;60.37;100521.84;3080411;46;20439;-65
2023/12/26 08:29:00;;;;;;;7.30;2.47;;;10.90;91.80;;;12.53;60.38;100530.38;3080517;46;20553;-66
2023/12/26 08:31:29;;;;;;;6.70;1.93;;;10.90;91.80;;;12.54;60.60;100527.56;3080575;46;21046;-66
2023/12/26 08:33:57;;;;;;;4.97;2.10;;;10.90;91.70;;;12.55;60.39;100544.25;3080640;46;20424;-66
2023/12/26 08:36:26;;;;;;;11.73;2.50;;;10.90;91.80;;;12.56;60.52;100544.03;3080129;46;20432;-66
2023/12/26 08:38:54;;;;;;;6.90;2.10;;;10.90;91.80;;;12.58;60.59;100539.38;3080635;46;20460;-65
2023/12/26 08:41:23;;;;;;;7.80;2.43;;;10.90;91.70;;;12.61;60.49;100554.00;3080549;46;20507;-66
2023/12/26 08:43:51;;;;;;;8.70;1.93;;;10.90;91.70;;;12.60;60.32;100549.75;3080832;46;20560;-62
2023/12/26 08:46:19;;;;;;;5.53;2.03;;;10.90;91.70;;;12.59;60.08;100561.31;3082981;46;21150;-63
2023/12/26 08:48:48;;;;;;;8.13;1.73;;;11.00;91.70;;;12.57;60.35;100574.72;3082192;46;20588;-65
2023/12/26 08:51:18;;;;;;;6.87;2.17;;;11.00;91.60;;;12.58;60.56;100570.22;3083499;46;20460;-66
2023/12/26 08:53:47;;;;;;;5.67;1.93;;;11.00;91.60;;;12.59;60.11;100572.69;3082998;46;20464;-66
2023/12/26 08:56:16;;;;;;;5.33;1.77;;;11.00;91.50;;;12.60;60.32;100579.59;3082817;46;20526;-63
2023/12/26 08:58:44;;;;;;;8.27;1.90;;;11.00;91.50;;;12.63;60.02;100588.97;3082081;46;20486;-65
2023/12/26 09:01:14;;;;;;;5.63;1.90;;;11.00;91.60;;;12.68;60.41;100591.84;3083064;46;20545;-63
2023/12/26 09:03:43;;;;;;;8.33;1.80;;;11.00;91.60;;;12.72;60.19;100586.00;3082647;46;20549;-66
2023/12/26 09:06:12;;;;;;;8.37;1.70;;;11.00;91.60;;;12.75;60.35;100603.28;3082696;46;20438;-66
2023/12/26 09:08:40;;;;;;;11.40;2.20;;;11.10;91.60;;;12.76;59.77;100594.34;3082094;46;20618;-64
2023/12/26 09:11:09;;;;;;;6.43;1.80;;;11.10;91.50;;;12.79;59.95;100609.78;3082765;46;20427;-66
2023/12/26 09:13:37;;;;;;;8.40;1.87;;;11.10;91.50;;;12.80;59.92;100611.44;3083041;46;20608;-66
2023/12/26 09:16:06;;;;;;;7.57;2.00;;;11.10;91.40;;;12.82;59.69;100609.41;3082444;46;20513;-66
2023/12/26 09:18:36;;;;;;;8.23;1.90;;;11.10;91.30;;;12.83;59.72;100617.16;3082255;46;20470;-64
2023/12/26 09:21:05;;;;;;;8.47;2.17;;;11.20;91.30;;;12.84;59.17;100617.97;3082562;46;20532;-66
2023/12/26 09:23:34;;;;;;;10.43;2.20;;;11.20;91.10;;;12.86;59.27;100626.50;3083229;46;20480;-66
2023/12/26 09:26:04;;;;;;;6.90;2.10;;;11.20;91.10;;;12.89;59.16;100641.97;3082682;46;20473;-66
2023/12/26 09:28:32;;;;;;;6.57;1.90;;;11.20;90.90;;;12.92;59.06;100636.31;3082310;46;20525;-66
2023/12/26 09:31:01;;;;;;;8.43;2.37;;;11.20;90.80;;;12.96;58.85;100653.41;3082633;46;20577;-65
2023/12/26 09:33:29;;;;;;;7.50;1.63;;;11.20;90.90;;;12.98;58.65;100656.69;3082476;46;21147;-64
2023/12/26 09:35:58;;;;;;;8.70;2.73;;;11.30;90.90;;;13.02;58.83;100654.47;3082552;46;20451;-66
2023/12/26 09:38:26;;;;;;;12.13;2.40;;;11.30;90.80;;;13.05;58.66;100654.09;3081875;46;21017;-64
2023/12/26 09:40:55;;;;;;;7.20;2.30;;;11.30;90.70;;;13.05;58.53;100660.19;3082288;46;20456;-66
2023/12/26 09:43:23;;;;;;;10.27;2.70;;;11.30;90.50;;;13.07;58.41;100671.44;3082606;46;20563;-66
2023/12/26 09:45:52;;;;;;;5.40;2.07;;;11.40;90.60;;;13.08;58.23;100673.06;3082639;46;20431;-65
2023/12/26 09:48:20;;;;;;;7.30;2.20;;;11.40;90.50;;;13.08;58.12;100667.75;3081747;46;21114;-66
2023/12/26 09:50:53;;;;;;;9.63;1.90;;;11.40;90.40;;;13.09;58.18;100673.88;3082418;46;20568;-66
2023/12/26 09:53:24;;;;;;;7.83;1.87;;;11.40;90.50;;;13.11;58.57;100682.41;3082568;46;20432;-66
2023/12/26 09:55:53;;;;;;;7.10;2.07;;;11.40;90.60;;;13.11;58.56;100680.59;3080875;46;20431;-64
2023/12/26 09:58:21;;;;;;;8.57;2.57;;;11.40;90.50;;;13.14;57.94;100672.31;3081753;46;20482;-66
2023/12/26 10:00:52;;;;;;;8.70;2.40;;;11.40;90.50;;;13.17;58.17;100686.94;3082577;46;20549;-64
2023/12/26 10:03:22;;;;;;;9.90;2.40;;;11.40;90.50;;;13.19;57.94;100684.94;3082074;46;20440;-63
2023/12/26 10:05:57;;;;;;;7.43;2.20;;;11.50;90.50;;;13.21;58.10;100699.59;3081447;46;20431;-66
2023/12/26 10:08:25;;;;;;;10.70;3.17;;;11.50;90.50;;;13.20;58.05;100690.00;3081765;46;20443;-67
2023/12/26 10:10:54;;;;;;;6.73;2.00;;;11.50;90.20;;;13.21;57.99;100694.31;3082517;46;20428;-66
2023/12/26 10:13:23;;;;;;;5.80;1.57;;;11.50;90.30;;;13.23;57.73;100700.22;3082232;46;20498;-66
2023/12/26 10:15:51;;;;;;;9.80;2.20;;;11.50;90.40;;;13.26;58.15;100707.75;3082199;46;20527;-66
2023/12/26 10:18:21;;;;;;;6.87;2.30;;;11.50;90.30;;;13.27;57.58;100709.38;3081733;46;20537;-66